Time;durP1;ratioP1;P1;durP2;ratioP2;P2;SDS_P1;SDS_P2;PMS_P1;PMS_P2;Temp;Humidity;BMP_temperature;BMP_pressure;BME280_temperature;BME280_humidity;BME280_pressure;Samples;Min_cycle;Max_cycle;Signal;HPM_P1;HPM_P2
2021/05/04 00:00:43;;;;;;;3.03;2.30;;;13.90;71.20;;;;;;5094736;28;20051;-42
2021/05/04 00:03:09;;;;;;;2.35;2.15;;;13.90;71.20;;;;;;5094034;28;20078;-40
2021/05/04 00:05:35;;;;;;;2.30;2.08;;;13.90;71.20;;;;;;5094736;28;20075;-42
2021/05/04 00:08:00;;;;;;;2.35;2.03;;;13.90;71.20;;;;;;5094894;28;20127;-43
2021/05/04 00:10:26;;;;;;;2.20;1.98;;;13.90;71.20;;;;;;5094628;28;20519;-43
2021/05/04 00:12:52;;;;;;;2.55;2.20;;;13.90;71.20;;;;;;5093880;28;20052;-43
2021/05/04 00:15:18;;;;;;;2.10;1.90;;;13.90;71.20;;;;;;5094200;28;20048;-41
2021/05/04 00:18:00;;;;;;;3.47;2.13;;;13.90;71.20;;;;;;5094616;28;20488;-46
2021/05/04 00:20:26;;;;;;;2.08;1.95;;;13.90;71.10;;;;;;5094331;28;20052;-42
2021/05/04 00:22:52;;;;;;;2.20;1.80;;;13.90;71.10;;;;;;5094311;28;20134;-43
2021/05/04 00:25:18;;;;;;;2.42;2.20;;;13.90;71.20;;;;;;5094309;28;20044;-42
2021/05/04 00:27:44;;;;;;;2.03;1.85;;;13.90;71.10;;;;;;5093943;28;20040;-40
2021/05/04 00:30:11;;;;;;;2.40;2.05;;;13.90;71.10;;;;;;5094307;28;20044;-44
2021/05/04 00:32:36;;;;;;;2.08;1.83;;;13.90;71.10;;;;;;5094261;28;20052;-41
2021/05/04 00:35:03;;;;;;;2.63;2.30;;;13.90;71.10;;;;;;5093982;28;20085;-39
2021/05/04 00:37:28;;;;;;;2.17;1.80;;;13.90;71.10;;;;;;5094322;28;20040;-43
2021/05/04 00:39:54;;;;;;;2.53;2.00;;;13.90;71.10;;;;;;5094309;28;20048;-43
2021/05/04 00:42:23;;;;;;;2.40;2.20;;;13.90;71.10;;;;;;5093846;28;20040;-42
2021/05/04 00:44:49;;;;;;;3.30;2.22;;;13.90;71.10;;;;;;5093555;28;20076;-43
2021/05/04 00:47:15;;;;;;;2.50;2.03;;;13.90;71.10;;;;;;5093877;28;20068;-41
2021/05/04 00:49:40;;;;;;;2.13;1.90;;;13.90;71.10;;;;;;5093858;28;20040;-42
2021/05/04 00:52:06;;;;;;;2.22;2.00;;;14.00;71.10;;;;;;5093958;28;20054;-42
2021/05/04 00:54:33;;;;;;;2.15;1.95;;;13.90;71.10;;;;;;5093600;28;20063;-42
2021/05/04 00:56:59;;;;;;;2.20;2.00;;;13.90;71.10;;;;;;5093813;28;20047;-42
2021/05/04 00:59:26;;;;;;;2.47;2.13;;;13.90;71.10;;;;;;5093324;28;20048;-41
2021/05/04 01:01:52;;;;;;;2.45;2.10;;;13.90;71.10;;;;;;5093351;28;20147;-43
2021/05/04 01:04:19;;;;;;;2.33;2.05;;;13.90;71.10;;;;;;5093609;28;20052;-45
2021/05/04 01:06:45;;;;;;;2.03;1.83;;;14.00;71.10;;;;;;5093234;28;20051;-41
2021/05/04 01:09:14;;;;;;;2.40;1.70;;;13.90;71.10;;;;;;5093609;28;20043;-43
2021/05/04 01:11:41;;;;;;;1.90;1.77;;;13.90;71.10;;;;;;5093440;28;20047;-43
2021/05/04 01:14:08;;;;;;;2.10;1.70;;;13.90;71.10;;;;;;5093160;28;20048;-41
2021/05/04 01:16:34;;;;;;;2.13;1.83;;;13.90;71.10;;;;;;5092967;28;20044;-42
2021/05/04 01:18:59;;;;;;;2.38;1.92;;;13.80;71.10;;;;;;5093238;28;20051;-43
2021/05/04 01:21:25;;;;;;;2.15;1.90;;;13.90;71.10;;;;;;5093234;28;20044;-41
2021/05/04 01:23:51;;;;;;;1.88;1.52;;;13.90;71.10;;;;;;5093424;28;20035;-41
2021/05/04 01:26:17;;;;;;;2.17;1.98;;;13.90;71.10;;;;;;5092844;28;20051;-40
2021/05/04 01:28:43;;;;;;;2.15;1.90;;;13.90;71.10;;;;;;5092992;28;20174;-42
2021/05/04 01:31:09;;;;;;;2.00;1.80;;;13.90;71.10;;;;;;5093297;28;20139;-43
2021/05/04 01:33:34;;;;;;;2.20;2.00;;;13.90;71.10;;;;;;5093196;28;20109;-40
2021/05/04 01:36:03;;;;;;;1.55;1.45;;;13.90;71.10;;;;;;5093111;28;20052;-43
2021/05/04 01:38:29;;;;;;;1.98;1.77;;;13.90;71.00;;;;;;5092922;28;20465;-42
2021/05/04 01:40:55;;;;;;;2.10;1.77;;;13.90;71.10;;;;;;5093169;28;20052;-41
2021/05/04 01:43:20;;;;;;;1.77;1.60;;;13.90;71.10;;;;;;5092939;28;20055;-42
2021/05/04 01:45:46;;;;;;;2.03;1.83;;;13.90;71.00;;;;;;5092684;28;20048;-42
2021/05/04 01:48:12;;;;;;;2.13;1.80;;;13.90;71.10;;;;;;5092596;28;20052;-41
2021/05/04 01:50:38;;;;;;;1.60;1.50;;;13.90;71.00;;;;;;5092758;28;20048;-41
2021/05/04 01:53:03;;;;;;;2.25;1.70;;;13.90;71.00;;;;;;5092682;28;20083;-41
2021/05/04 01:55:30;;;;;;;1.80;1.70;;;13.90;71.00;;;;;;5092720;28;20048;-42
2021/05/04 01:57:55;;;;;;;1.70;1.60;;;13.90;71.00;;;;;;5092732;28;20059;-39
2021/05/04 02:00:21;;;;;;;1.73;1.63;;;13.90;71.10;;;;;;5092473;28;20052;-42
2021/05/04 02:02:47;;;;;;;1.98;1.58;;;13.90;71.00;;;;;;5092450;28;20048;-41
2021/05/04 02:05:13;;;;;;;1.88;1.60;;;13.90;71.00;;;;;;5092580;28;20052;-41
2021/05/04 02:07:39;;;;;;;1.67;1.58;;;13.90;71.00;;;;;;5092548;28;20044;-42
2021/05/04 02:10:05;;;;;;;1.63;1.52;;;13.90;71.00;;;;;;5092197;28;20078;-40
2021/05/04 02:12:31;;;;;;;1.63;1.52;;;13.90;71.00;;;;;;5092744;28;20576;-40
2021/05/04 02:14:56;;;;;;;1.95;1.50;;;13.90;71.00;;;;;;5096823;28;20079;-40
2021/05/04 02:17:22;;;;;;;2.05;1.85;;;13.90;71.00;;;;;;5096405;28;20048;-40
2021/05/04 02:19:48;;;;;;;1.48;1.38;;;13.90;71.00;;;;;;5096617;28;20055;-42
2021/05/04 02:22:15;;;;;;;3.35;1.77;;;13.80;71.00;;;;;;5096252;28;20475;-40
2021/05/04 02:24:41;;;;;;;2.00;1.67;;;13.90;71.00;;;;;;5096903;28;20479;-40
2021/05/04 02:27:07;;;;;;;2.30;2.05;;;13.80;71.00;;;;;;5096907;28;20081;-41
2021/05/04 02:29:33;;;;;;;1.73;1.63;;;13.90;71.00;;;;;;5096581;28;20082;-41
2021/05/04 02:31:59;;;;;;;1.65;1.50;;;13.90;71.00;;;;;;5095984;28;20549;-42
2021/05/04 02:34:24;;;;;;;2.00;1.70;;;13.90;71.00;;;;;;5096758;28;20068;-40
2021/05/04 02:36:50;;;;;;;1.80;1.70;;;13.90;71.00;;;;;;5096421;28;20484;-40
2021/05/04 02:39:16;;;;;;;1.75;1.65;;;13.80;71.00;;;;;;5096636;28;20411;-39
2021/05/04 02:41:41;;;;;;;1.70;1.60;;;13.90;71.00;;;;;;5096264;28;20544;-43
2021/05/04 02:44:07;;;;;;;2.22;1.50;;;13.80;71.00;;;;;;5096521;28;20454;-42
2021/05/04 02:46:34;;;;;;;1.85;1.60;;;13.90;71.00;;;;;;5096230;28;20067;-41
2021/05/04 02:49:00;;;;;;;2.00;1.80;;;13.90;71.00;;;;;;5096379;28;20052;-43
2021/05/04 02:51:26;;;;;;;1.42;1.13;;;13.90;71.00;;;;;;5095842;28;20097;-41
2021/05/04 02:53:52;;;;;;;1.75;1.65;;;13.80;71.20;;;;;;5096120;28;20080;-42
2021/05/04 02:56:19;;;;;;;2.22;1.83;;;13.90;71.00;;;;;;5096218;28;20488;-42
2021/05/04 02:58:45;;;;;;;1.50;1.40;;;13.80;71.00;;;;;;5096459;28;20093;-42
2021/05/04 03:01:10;;;;;;;1.63;1.50;;;13.80;70.90;;;;;;5096268;28;20048;-40
2021/05/04 03:03:37;;;;;;;1.95;1.75;;;13.80;71.60;;;;;;5095229;28;20082;-41
2021/05/04 03:06:03;;;;;;;1.30;1.20;;;13.80;71.00;;;;;;5094344;28;20146;-42
2021/05/04 03:08:30;;;;;;;1.65;1.55;;;13.80;71.00;;;;;;5095955;28;20381;-41
2021/05/04 03:10:55;;;;;;;1.85;1.73;;;13.80;70.90;;;;;;5096243;28;20044;-41
2021/05/04 03:13:26;;;;;;;1.67;1.55;;;13.80;71.00;;;;;;5095772;28;20052;-39
2021/05/04 03:15:52;;;;;;;1.70;1.60;;;13.80;71.00;;;;;;5095989;28;20055;-39
2021/05/04 03:18:18;;;;;;;2.10;1.85;;;13.80;71.00;;;;;;5095426;28;20097;-40
2021/05/04 03:20:45;;;;;;;1.50;1.40;;;13.80;71.00;;;;;;5095937;28;20043;-42
2021/05/04 03:23:10;;;;;;;1.40;1.30;;;13.80;70.90;;;;;;5095203;28;20051;-40
2021/05/04 03:25:37;;;;;;;2.20;1.45;;;13.80;71.00;;;;;;5095399;28;20142;-38
2021/05/04 03:28:02;;;;;;;2.60;1.70;;;13.80;70.90;;;;;;5095737;28;20051;-42
2021/05/04 03:30:28;;;;;;;1.77;1.50;;;13.80;70.90;;;;;;5095703;28;20171;-41
2021/05/04 03:32:54;;;;;;;1.65;1.40;;;13.80;70.90;;;;;;5095269;28;20047;-42
2021/05/04 03:35:20;;;;;;;1.60;1.50;;;13.80;71.00;;;;;;5095035;28;20040;-41
2021/05/04 03:37:46;;;;;;;1.50;1.40;;;13.80;71.00;;;;;;5095292;28;20052;-44
2021/05/04 03:40:13;;;;;;;1.60;1.30;;;13.80;70.90;;;;;;5095687;28;20056;-42
2021/05/04 03:42:40;;;;;;;1.58;1.48;;;13.80;70.90;;;;;;5095554;28;20048;-42
2021/05/04 03:45:07;;;;;;;1.60;1.50;;;13.80;70.90;;;;;;5094868;28;20054;-40
2021/05/04 03:47:32;;;;;;;1.92;1.20;;;13.80;70.90;;;;;;5095247;28;20120;-41
2021/05/04 03:49:58;;;;;;;1.40;1.30;;;13.80;71.00;;;;;;5094819;28;20496;-43
2021/05/04 03:52:25;;;;;;;1.40;1.30;;;13.80;70.90;;;;;;5095167;28;20403;-42
2021/05/04 03:54:51;;;;;;;1.77;1.52;;;13.80;70.90;;;;;;5094890;28;20048;-42
2021/05/04 03:57:17;;;;;;;1.58;1.48;;;13.80;71.00;;;;;;5094218;28;20131;-43
2021/05/04 03:59:43;;;;;;;1.48;1.20;;;13.80;71.00;;;;;;5094156;28;20491;-42
2021/05/04 04:02:09;;;;;;;1.83;1.48;;;13.80;70.90;;;;;;5093860;28;20059;-41
2021/05/04 04:04:34;;;;;;;1.52;1.42;;;13.80;70.90;;;;;;5093528;28;20046;-42
2021/05/04 04:07:00;;;;;;;1.83;1.48;;;13.90;71.00;;;;;;5094258;28;20078;-42
2021/05/04 04:09:26;;;;;;;1.75;1.35;;;13.80;70.90;;;;;;5094727;28;20520;-40
2021/05/04 04:11:52;;;;;;;1.20;1.10;;;13.80;71.00;;;;;;5095085;28;20040;-45
2021/05/04 04:14:18;;;;;;;1.40;1.30;;;13.80;70.90;;;;;;5094577;28;20052;-41
2021/05/04 04:16:44;;;;;;;2.58;1.60;;;13.80;70.90;;;;;;5094518;28;20055;-39
2021/05/04 04:19:10;;;;;;;1.80;1.65;;;13.80;70.90;;;;;;5094688;28;20145;-43
2021/05/04 04:21:36;;;;;;;2.40;1.50;;;13.80;70.90;;;;;;5094118;28;20118;-42
2021/05/04 04:24:03;;;;;;;1.35;1.25;;;13.80;70.90;;;;;;5094357;28;20060;-41
2021/05/04 04:26:29;;;;;;;1.73;1.50;;;13.80;71.00;;;;;;5094709;28;20044;-41
2021/05/04 04:28:54;;;;;;;3.42;1.60;;;13.80;71.00;;;;;;5092594;28;20066;-42
2021/05/04 04:31:20;;;;;;;1.65;1.42;;;13.80;71.00;;;;;;5094311;28;20055;-43
2021/05/04 04:33:46;;;;;;;1.30;1.20;;;13.80;70.90;;;;;;5094374;28;20428;-42
2021/05/04 04:36:11;;;;;;;1.27;1.17;;;13.80;71.00;;;;;;5093513;28;20133;-44
2021/05/04 04:38:37;;;;;;;1.35;1.25;;;13.80;70.90;;;;;;5094034;28;20044;-42
2021/05/04 04:41:03;;;;;;;1.10;1.00;;;13.80;71.00;;;;;;5094486;28;20048;-42
2021/05/04 04:43:28;;;;;;;1.45;1.35;;;13.80;70.90;;;;;;5094202;28;20125;-43
2021/05/04 04:45:54;;;;;;;1.40;1.30;;;13.70;70.90;;;;;;5094289;28;20058;-42
2021/05/04 04:48:20;;;;;;;1.60;1.50;;;13.80;70.90;;;;;;5094321;28;20055;-40
2021/05/04 04:50:45;;;;;;;1.50;1.40;;;13.80;70.90;;;;;;5093665;28;20044;-42
2021/05/04 04:53:11;;;;;;;2.17;1.38;;;13.80;70.90;;;;;;5093815;28;20070;-41
2021/05/04 04:55:37;;;;;;;2.15;1.30;;;13.80;71.00;;;;;;5092460;28;20043;-43
2021/05/04 04:58:03;;;;;;;1.13;1.02;;;13.80;71.00;;;;;;5093916;28;20048;-42
2021/05/04 05:00:29;;;;;;;1.48;1.38;;;13.80;71.00;;;;;;5093572;28;20044;-39
2021/05/04 05:02:55;;;;;;;1.33;1.13;;;13.80;71.00;;;;;;5093843;28;20056;-42
2021/05/04 05:05:20;;;;;;;1.20;1.10;;;13.80;71.00;;;;;;5093685;28;20044;-41
2021/05/04 05:07:47;;;;;;;1.50;1.30;;;13.80;71.00;;;;;;5093538;28;20066;-40
2021/05/04 05:10:13;;;;;;;1.38;1.27;;;13.80;71.00;;;;;;5093079;28;20083;-40
2021/05/04 05:12:38;;;;;;;1.30;1.20;;;13.80;71.00;;;;;;5093987;28;20092;-38
2021/05/04 05:15:06;;;;;;;1.50;1.20;;;13.80;71.00;;;;;;5093850;28;20052;-40
2021/05/04 05:17:32;;;;;;;1.48;1.35;;;13.80;71.00;;;;;;5093532;28;20484;-40
2021/05/04 05:19:58;;;;;;;1.75;1.15;;;13.80;71.00;;;;;;5093772;28;20147;-40
2021/05/04 05:22:25;;;;;;;1.30;1.20;;;13.80;71.00;;;;;;5093013;28;20048;-40
2021/05/04 05:24:53;;;;;;;1.30;1.20;;;13.80;71.00;;;;;;5093156;28;20113;-41
2021/05/04 05:27:18;;;;;;;1.98;1.63;;;13.80;71.00;;;;;;5093660;28;20078;-39
2021/05/04 05:29:44;;;;;;;2.00;1.23;;;13.80;71.00;;;;;;5093522;28;20439;-41
2021/05/04 05:32:10;;;;;;;1.10;1.00;;;13.80;71.00;;;;;;5093208;28;20056;-42
2021/05/04 05:34:36;;;;;;;1.52;1.27;;;13.80;71.60;;;;;;5093152;28;20044;-42
2021/05/04 05:37:02;;;;;;;2.35;1.15;;;13.80;71.00;;;;;;5093265;28;20051;-41
2021/05/04 05:39:28;;;;;;;2.03;1.33;;;13.80;71.00;;;;;;5092132;28;20040;-45
2021/05/04 05:41:53;;;;;;;1.05;0.95;;;13.80;71.00;;;;;;5092903;28;20044;-43
2021/05/04 05:44:19;;;;;;;1.63;1.40;;;13.80;71.00;;;;;;5092774;28;20514;-42
2021/05/04 05:46:45;;;;;;;1.75;1.02;;;13.80;71.00;;;;;;5093245;28;20047;-44
2021/05/04 05:49:11;;;;;;;1.45;1.35;;;13.80;71.00;;;;;;5091994;28;20066;-40
2021/05/04 05:51:38;;;;;;;1.10;0.98;;;13.80;70.90;;;;;;5092830;28;20097;-40
2021/05/04 05:54:04;;;;;;;1.55;1.02;;;13.70;70.90;;;;;;5092556;28;20044;-41
2021/05/04 05:56:30;;;;;;;1.42;1.25;;;13.80;71.00;;;;;;5092879;28;20550;-42
2021/05/04 05:58:56;;;;;;;1.23;0.90;;;13.80;71.00;;;;;;5093182;28;20052;-41
2021/05/04 06:01:22;;;;;;;1.73;0.95;;;13.70;70.90;;;;;;5092772;28;20052;-38
2021/05/04 06:03:47;;;;;;;2.47;1.27;;;13.70;70.90;;;;;;5092455;28;20101;-42
2021/05/04 06:06:13;;;;;;;1.45;1.20;;;13.80;71.00;;;;;;5092573;28;20043;-44
2021/05/04 06:08:39;;;;;;;1.40;0.98;;;13.80;71.00;;;;;;5092720;28;20047;-43
2021/05/04 06:11:04;;;;;;;2.25;1.00;;;13.80;71.00;;;;;;5092687;28;20044;-41
2021/05/04 06:13:30;;;;;;;1.13;1.05;;;13.80;71.00;;;;;;5092385;28;20123;-42
2021/05/04 06:15:56;;;;;;;1.60;1.45;;;13.80;71.00;;;;;;5093002;28;20071;-42
2021/05/04 06:18:21;;;;;;;1.20;1.10;;;13.70;71.00;;;;;;5092884;28;20100;-42
2021/05/04 06:20:47;;;;;;;2.30;1.10;;;13.70;71.00;;;;;;5125120;28;20127;-43
2021/05/04 06:23:13;;;;;;;1.27;1.17;;;13.80;71.30;;;;;;5092261;28;20505;-39
2021/05/04 06:25:39;;;;;;;0.95;0.90;;;13.80;71.00;;;;;;5112389;28;20052;-44
2021/05/04 06:28:07;;;;;;;1.30;1.20;;;13.80;71.00;;;;;;5106706;28;20096;-42
2021/05/04 06:30:36;;;;;;;1.10;1.00;;;13.80;71.70;;;;;;5092643;28;20040;-40
2021/05/04 06:33:03;;;;;;;2.25;1.33;;;13.80;71.10;;;;;;5093040;28;20478;-43
2021/05/04 06:35:29;;;;;;;1.25;1.10;;;13.80;71.00;;;;;;5092666;28;20048;-42
2021/05/04 06:37:56;;;;;;;1.20;1.10;;;13.80;71.00;;;;;;5092474;28;20048;-43
2021/05/04 06:40:22;;;;;;;1.48;1.20;;;13.80;71.10;;;;;;5099572;28;20059;-43
2021/05/04 06:42:47;;;;;;;1.42;1.10;;;13.80;71.00;;;;;;5110876;28;20176;-42
2021/05/04 06:45:13;;;;;;;0.80;0.80;;;13.60;70.90;;;;;;5092353;28;20492;-42
2021/05/04 06:47:39;;;;;;;1.10;0.85;;;13.80;71.10;;;;;;5092477;28;20040;-42
2021/05/04 06:50:12;;;;;;;1.05;1.00;;;13.70;71.00;;;;;;5092514;28;20105;-43
2021/05/04 06:52:37;;;;;;;0.73;0.73;;;13.80;71.00;;;;;;5092639;28;20050;-45
2021/05/04 06:55:04;;;;;;;1.50;1.00;;;13.80;71.00;;;;;;5092294;28;20048;-42
2021/05/04 06:57:30;;;;;;;0.77;0.77;;;13.80;71.00;;;;;;5092339;28;20074;-42
2021/05/04 06:59:56;;;;;;;1.77;1.05;;;13.80;71.00;;;;;;5094060;28;20450;-42
2021/05/04 07:02:22;;;;;;;1.15;0.93;;;13.80;71.10;;;;;;5095927;28;20070;-42
2021/05/04 07:04:48;;;;;;;0.95;0.80;;;13.80;71.00;;;;;;5095666;28;20047;-39
2021/05/04 07:07:14;;;;;;;1.83;1.00;;;13.80;71.10;;;;;;5095044;28;20446;-41
2021/05/04 07:09:39;;;;;;;1.00;0.90;;;13.80;71.00;;;;;;5095187;28;20048;-42
2021/05/04 07:12:06;;;;;;;1.10;1.05;;;13.80;71.00;;;;;;5095447;28;20070;-41
2021/05/04 07:14:32;;;;;;;0.63;0.63;;;13.70;70.90;;;;;;5095990;28;20480;-41
2021/05/04 07:17:01;;;;;;;0.80;0.80;;;13.80;71.00;;;;;;5095798;28;20043;-41
2021/05/04 07:19:27;;;;;;;1.00;0.90;;;13.80;71.10;;;;;;5095756;28;20507;-41
2021/05/04 07:21:54;;;;;;;1.10;0.80;;;13.80;71.00;;;;;;5094668;28;20070;-38
2021/05/04 07:24:20;;;;;;;1.10;0.90;;;13.80;71.00;;;;;;5083772;28;20052;-38
2021/05/04 07:26:46;;;;;;;1.38;1.20;;;13.70;71.00;;;;;;5094121;28;20804;-39
2021/05/04 07:29:12;;;;;;;1.90;1.00;;;13.80;71.10;;;;;;5095196;28;20052;-39
2021/05/04 07:31:38;;;;;;;1.20;0.80;;;13.80;71.10;;;;;;5095073;28;20056;-40
2021/05/04 07:34:03;;;;;;;0.73;0.73;;;13.80;71.10;;;;;;5094984;28;20484;-39
2021/05/04 07:36:30;;;;;;;1.27;1.05;;;13.80;71.10;;;;;;5095283;28;20424;-42
2021/05/04 07:38:57;;;;;;;0.60;0.60;;;13.70;71.00;;;;;;5094620;28;20055;-38
2021/05/04 07:41:23;;;;;;;1.15;0.82;;;13.70;71.60;;;;;;5093920;28;20052;-39
2021/05/04 07:43:49;;;;;;;1.38;0.70;;;13.80;71.00;;;;;;5094300;28;20074;-39
2021/05/04 07:46:15;;;;;;;0.93;0.80;;;13.80;71.00;;;;;;5094644;28;20048;-39
2021/05/04 07:48:41;;;;;;;1.33;0.90;;;13.70;71.00;;;;;;5094825;28;20043;-37
2021/05/04 07:51:06;;;;;;;1.77;1.08;;;13.80;71.00;;;;;;5094642;28;20617;-40
2021/05/04 07:53:32;;;;;;;1.08;0.82;;;13.70;71.00;;;;;;5094781;28;20097;-39
2021/05/04 07:55:58;;;;;;;0.80;0.80;;;13.80;71.00;;;;;;5094264;28;20048;-39
2021/05/04 07:58:24;;;;;;;0.90;0.80;;;13.80;71.00;;;;;;5094031;28;20044;-40
2021/05/04 08:00:50;;;;;;;0.98;0.85;;;13.80;71.00;;;;;;5094345;28;20056;-39
2021/05/04 08:03:16;;;;;;;0.98;0.75;;;13.80;71.00;;;;;;5094325;28;20051;-39
2021/05/04 08:05:42;;;;;;;1.10;0.80;;;13.80;71.00;;;;;;5094586;28;20048;-41
2021/05/04 08:08:10;;;;;;;2.03;1.00;;;13.80;71.00;;;;;;5094029;28;20044;-43
2021/05/04 08:10:36;;;;;;;0.73;0.73;;;13.80;71.00;;;;;;5093620;28;20071;-44
2021/05/04 08:13:03;;;;;;;1.52;0.80;;;13.80;71.00;;;;;;5093640;28;20479;-40
2021/05/04 08:15:29;;;;;;;0.95;0.80;;;13.80;71.00;;;;;;5087149;28;20036;-40
2021/05/04 08:18:01;;;;;;;0.73;0.65;;;13.80;71.00;;;;;;5084635;28;20102;-41
2021/05/04 08:20:32;;;;;;;0.70;0.70;;;13.80;71.00;;;;;;5089010;28;20472;-39
2021/05/04 08:22:58;;;;;;;1.48;0.93;;;13.80;71.00;;;;;;5089444;28;20052;-39
2021/05/04 08:25:25;;;;;;;1.27;0.70;;;13.80;71.10;;;;;;5089377;28;20105;-40
2021/05/04 08:27:51;;;;;;;1.05;0.60;;;13.80;71.10;;;;;;5088470;28;20560;-39
2021/05/04 08:30:17;;;;;;;1.38;1.05;;;13.80;71.00;;;;;;5089020;28;20495;-40
2021/05/04 08:32:43;;;;;;;2.20;0.73;;;13.80;71.00;;;;;;5087402;28;20101;-42
2021/05/04 08:35:09;;;;;;;0.70;0.70;;;13.80;71.00;;;;;;5087841;28;20117;-41
2021/05/04 08:37:35;;;;;;;0.80;0.80;;;13.80;71.00;;;;;;5088725;28;20058;-42
2021/05/04 08:40:00;;;;;;;0.80;0.68;;;13.80;71.00;;;;;;5068338;28;20044;-39
2021/05/04 08:42:26;;;;;;;1.50;1.00;;;13.80;71.00;;;;;;5084454;28;20142;-39
2021/05/04 08:44:52;;;;;;;2.00;1.20;;;13.80;71.10;;;;;;5087997;28;20062;-39
2021/05/04 08:47:19;;;;;;;1.45;0.93;;;13.80;71.10;;;;;;5088424;28;20052;-38
2021/05/04 08:49:46;;;;;;;2.47;0.90;;;13.80;71.10;;;;;;5088802;28;20048;-39
2021/05/04 08:52:12;;;;;;;1.08;0.80;;;13.80;71.10;;;;;;5088632;28;20048;-39
2021/05/04 08:54:39;;;;;;;2.35;1.10;;;13.80;71.10;;;;;;5088178;28;20062;-43
2021/05/04 08:57:05;;;;;;;1.58;1.27;;;13.80;71.10;;;;;;5088214;28;20093;-41
2021/05/04 08:59:31;;;;;;;0.75;0.73;;;13.80;71.70;;;;;;5088266;28;20048;-39
2021/05/04 09:01:57;;;;;;;3.60;0.73;;;13.90;71.20;;;;;;5088238;28;20067;-41
2021/05/04 09:04:43;;;;;;;1.25;0.85;;;13.80;71.10;;;;;;5087842;28;20068;-39
2021/05/04 09:07:38;;;;;;;1.33;0.70;;;13.80;71.10;;;;;;5068311;28;20049;-39
2021/05/04 09:10:28;;;;;;;1.02;0.77;;;13.80;71.10;;;;;;5069317;28;20049;-42
2021/05/04 09:21:13;;;;;;;1.63;0.98;;;13.80;71.10;;;;;;5072233;28;20098;-41
2021/05/04 09:23:41;;;;;;;1.55;0.70;;;13.80;71.10;;;;;;5071163;28;20045;-40
2021/05/04 09:26:21;;;;;;;0.60;0.52;;;13.80;71.10;;;;;;5088729;28;20408;-39
2021/05/04 09:28:51;;;;;;;0.63;0.63;;;13.80;71.10;;;;;;5072894;28;20485;-42
2021/05/04 09:31:23;;;;;;;1.85;0.77;;;13.80;71.10;;;;;;5081664;28;20074;-46
2021/05/04 09:33:48;;;;;;;1.08;0.60;;;13.70;71.10;;;;;;5093096;28;20098;-38
2021/05/04 09:36:37;;;;;;;1.40;0.88;;;13.90;71.20;;;;;;5093287;28;20427;-39
2021/05/04 09:39:03;;;;;;;0.50;0.50;;;13.90;71.20;;;;;;5093058;28;20048;-43
2021/05/04 09:41:30;;;;;;;1.38;1.10;;;13.90;71.20;;;;;;5093327;28;20047;-40
2021/05/04 09:43:56;;;;;;;1.15;0.68;;;13.90;71.20;;;;;;5093068;28;20077;-44
2021/05/04 09:46:49;;;;;;;0.60;0.60;;;13.90;71.20;;;;;;5092891;28;20040;-42
2021/05/04 09:49:34;;;;;;;1.88;0.80;;;13.90;71.20;;;;;;5093279;28;20051;-43
2021/05/04 09:52:44;;;;;;;0.95;0.63;;;13.90;71.20;;;;;;5092923;28;20062;-39
2021/05/04 09:55:14;;;;;;;0.80;0.60;;;13.90;71.30;;;;;;5093221;28;20079;-44
2021/05/04 09:57:44;;;;;;;0.80;0.70;;;13.90;71.20;;;;;;5092911;28;20048;-40
2021/05/04 10:00:15;;;;;;;1.23;0.85;;;13.90;71.20;;;;;;5092896;28;20051;-42
2021/05/04 10:02:42;;;;;;;1.45;0.65;;;13.90;71.20;;;;;;5092451;28;20059;-42
2021/05/04 10:05:14;;;;;;;1.50;1.13;;;13.90;71.20;;;;;;5092516;28;20044;-39
2021/05/04 10:07:40;;;;;;;1.05;0.95;;;13.90;71.20;;;;;;5092924;28;20048;-41
2021/05/04 10:10:09;;;;;;;1.40;0.88;;;14.00;71.30;;;;;;5092812;28;20044;-41
2021/05/04 10:12:39;;;;;;;1.00;0.80;;;14.00;71.60;;;;;;5093067;28;20044;-41
2021/05/04 10:15:10;;;;;;;0.95;0.65;;;14.10;71.30;;;;;;5093024;28;20067;-41
2021/05/04 10:17:38;;;;;;;1.10;0.80;;;14.00;71.30;;;;;;5092324;28;20121;-38
2021/05/04 10:20:17;;;;;;;1.05;0.75;;;14.00;71.30;;;;;;5092744;28;20044;-38
2021/05/04 10:22:43;;;;;;;1.17;1.08;;;14.00;71.30;;;;;;5092786;28;20071;-38
2021/05/04 10:25:11;;;;;;;2.00;0.63;;;14.00;71.30;;;;;;5092629;28;20106;-39
2021/05/04 10:27:38;;;;;;;1.02;0.70;;;14.00;71.30;;;;;;5092499;28;20076;-41
2021/05/04 10:30:06;;;;;;;1.02;0.77;;;14.00;71.30;;;;;;5092880;28;20083;-38
2021/05/04 10:32:51;;;;;;;1.00;0.70;;;14.00;71.20;;;;;;5092298;28;20483;-39
2021/05/04 10:35:29;;;;;;;0.85;0.63;;;14.00;71.20;;;;;;5095125;28;20048;-42
2021/05/04 10:37:56;;;;;;;0.77;0.52;;;14.10;71.30;;;;;;5096389;28;20414;-38
2021/05/04 10:40:29;;;;;;;1.88;0.88;;;14.10;71.40;;;;;;5092368;28;20043;-39
2021/05/04 10:42:55;;;;;;;1.23;0.70;;;14.00;71.30;;;;;;5075149;28;20408;-39
2021/05/04 10:45:40;;;;;;;1.35;0.80;;;14.10;71.30;;;;;;5075207;28;20139;-38
2021/05/04 10:48:07;;;;;;;2.20;0.80;;;14.10;71.40;;;;;;5074341;28;20067;-39
2021/05/04 10:50:56;;;;;;;1.95;0.68;;;14.10;72.00;;;;;;5083380;28;20052;-40
2021/05/04 10:53:25;;;;;;;0.60;0.60;;;14.10;71.30;;;;;;5077412;28;20044;-39
2021/05/04 10:55:53;;;;;;;1.00;0.57;;;14.10;71.30;;;;;;5081375;28;20048;-39
2021/05/04 10:58:20;;;;;;;1.42;0.85;;;14.10;71.30;;;;;;5091911;28;20362;-39
2021/05/04 11:00:48;;;;;;;1.88;1.00;;;14.10;71.30;;;;;;5095226;28;20126;-40
2021/05/04 11:03:40;;;;;;;1.40;0.82;;;14.10;71.30;;;;;;5093474;28;20516;-39
2021/05/04 11:06:27;;;;;;;0.85;0.65;;;14.10;71.30;;;;;;5071720;28;20044;-40
2021/05/04 11:08:53;;;;;;;0.85;0.63;;;14.10;71.30;;;;;;5064103;28;20416;-39
2021/05/04 11:11:29;;;;;;;1.38;0.90;;;14.10;71.30;;;;;;5070738;28;20051;-40
2021/05/04 11:13:57;;;;;;;1.33;0.82;;;14.10;71.20;;;;;;5072681;28;20443;-40
2021/05/04 11:16:59;;;;;;;0.60;0.60;;;14.10;71.20;;;;;;5071045;28;20044;-41
2021/05/04 11:19:32;;;;;;;0.85;0.50;;;14.10;71.20;;;;;;5063233;28;20053;-38
2021/05/04 11:21:57;;;;;;;0.77;0.60;;;14.10;71.20;;;;;;5054660;28;20127;-39
2021/05/04 11:24:28;;;;;;;0.93;0.57;;;14.20;71.30;;;;;;5071480;28;20127;-39
2021/05/04 11:26:57;;;;;;;0.73;0.57;;;14.20;71.30;;;;;;5071308;28;20072;-38
2021/05/04 11:29:37;;;;;;;0.68;0.60;;;14.10;71.30;;;;;;5071544;28;20055;-39
2021/05/04 11:32:23;;;;;;;1.27;0.60;;;14.20;71.30;;;;;;5071665;28;20509;-43
2021/05/04 11:34:52;;;;;;;0.82;0.52;;;14.20;71.30;;;;;;5071141;28;20106;-39
2021/05/04 11:37:23;;;;;;;0.75;0.50;;;14.20;71.30;;;;;;5071070;28;20044;-40
2021/05/04 11:39:53;;;;;;;1.13;0.55;;;14.20;71.30;;;;;;5070420;28;20124;-40
2021/05/04 11:42:36;;;;;;;0.30;0.30;;;14.30;71.40;;;;;;5075509;28;20040;-40
2021/05/04 11:45:12;;;;;;;1.42;0.60;;;14.20;71.20;;;;;;5091278;28;20085;-40
2021/05/04 11:47:40;;;;;;;0.90;0.73;;;14.20;71.30;;;;;;5091894;28;20044;-39
2021/05/04 11:50:11;;;;;;;0.70;0.65;;;14.20;71.20;;;;;;5091817;28;20048;-42
2021/05/04 11:52:39;;;;;;;0.60;0.60;;;14.20;71.20;;;;;;5092987;28;20374;-39
2021/05/04 11:55:25;;;;;;;1.73;0.70;;;14.20;71.20;;;;;;5093390;28;20105;-41
2021/05/04 11:58:03;;;;;;;0.73;0.55;;;14.20;71.20;;;;;;5091712;28;20504;-39
2021/05/04 12:00:30;;;;;;;0.73;0.50;;;14.20;71.20;;;;;;5091372;28;20044;-40
2021/05/04 12:03:04;;;;;;;1.02;0.70;;;14.20;71.20;;;;;;5092502;28;20412;-40
2021/05/04 12:05:31;;;;;;;0.47;0.40;;;14.20;71.20;;;;;;5090854;28;20059;-40
2021/05/04 12:07:58;;;;;;;0.45;0.40;;;14.20;71.20;;;;;;5093119;28;20773;-39
2021/05/04 12:10:34;;;;;;;1.02;0.80;;;14.20;71.20;;;;;;5093623;28;20040;-41
2021/05/04 12:13:03;;;;;;;1.00;0.82;;;14.20;71.10;;;;;;5092797;28;20052;-41
2021/05/04 12:15:35;;;;;;;0.50;0.43;;;14.20;71.10;;;;;;5073739;28;20075;-39
2021/05/04 12:18:12;;;;;;;0.55;0.43;;;14.20;71.10;;;;;;5079379;28;20550;-38
2021/05/04 12:20:43;;;;;;;1.23;0.70;;;14.20;71.10;;;;;;5079165;28;20059;-39
2021/05/04 12:23:11;;;;;;;0.82;0.60;;;14.20;71.10;;;;;;5086731;28;20138;-41
2021/05/04 12:25:41;;;;;;;0.82;0.50;;;14.20;71.10;;;;;;5093993;28;20052;-40
2021/05/04 12:28:11;;;;;;;0.63;0.40;;;14.20;71.10;;;;;;5073849;28;20127;-41
2021/05/04 12:30:36;;;;;;;0.60;0.50;;;14.20;71.10;;;;;;5092991;28;20593;-41
2021/05/04 12:33:02;;;;;;;1.15;0.60;;;14.20;71.10;;;;;;5114324;28;20078;-41
2021/05/04 12:35:33;;;;;;;0.70;0.38;;;14.20;71.10;;;;;;5114134;28;20046;-40
2021/05/04 12:38:35;;;;;;;0.95;0.60;;;14.20;71.10;;;;;;5112527;28;20123;-39
2021/05/04 12:41:16;;;;;;;0.70;0.50;;;14.30;71.10;;;;;;5093667;28;20127;-40
2021/05/04 12:44:08;;;;;;;1.33;0.57;;;14.20;71.10;;;;;;5093890;28;20043;-40
2021/05/04 12:46:34;;;;;;;0.40;0.40;;;14.20;71.00;;;;;;5089311;28;20136;-39
2021/05/04 12:49:02;;;;;;;1.58;0.70;;;14.30;71.10;;;;;;5081794;28;20056;-38
2021/05/04 12:51:30;;;;;;;1.02;0.60;;;14.30;71.10;;;;;;5082591;28;20044;-42
2021/05/04 12:54:22;;;;;;;0.60;0.50;;;14.30;71.10;;;;;;5092390;28;20055;-39
2021/05/04 12:56:50;;;;;;;0.40;0.40;;;14.30;71.10;;;;;;5092809;28;20055;-42
2021/05/04 12:59:32;;;;;;;0.40;0.40;;;14.20;71.00;;;;;;5092811;28;20415;-39
2021/05/04 13:02:04;;;;;;;0.65;0.47;;;14.30;71.00;;;;;;5092668;28;20055;-40